Time;durP1;ratioP1;P1;durP2;ratioP2;P2;SDS_P1;SDS_P2;PMS_P1;PMS_P2;Temp;Humidity;BMP_temperature;BMP_pressure;BME280_temperature;BME280_humidity;BME280_pressure;Samples;Min_cycle;Max_cycle;Signal;HPM_P1;HPM_P2
2021/07/11 00:00:26;;;;;;;8.68;7.75;;;18.30;88.20;;;;;;5093729;28;20031;-81
2021/07/11 00:02:52;;;;;;;7.65;6.85;;;18.30;88.20;;;;;;5093621;28;20376;-81
2021/07/11 00:05:20;;;;;;;8.95;7.63;;;18.30;88.20;;;;;;5093611;28;20036;-81
2021/07/11 00:07:46;;;;;;;10.23;7.18;;;18.30;88.20;;;;;;5093739;28;20032;-81
2021/07/11 00:10:15;;;;;;;11.18;8.35;;;18.30;88.20;;;;;;5093813;28;20461;-81
2021/07/11 00:12:42;;;;;;;12.73;8.15;;;18.20;88.10;;;;;;5093467;28;20028;-81
2021/07/11 00:15:11;;;;;;;11.85;8.43;;;18.30;88.20;;;;;;5093620;28;20063;-81
2021/07/11 00:17:37;;;;;;;10.60;9.48;;;18.30;88.10;;;;;;5093272;28;20579;-81
2021/07/11 00:20:05;;;;;;;12.05;9.02;;;18.20;88.00;;;;;;5080374;28;20077;-81
2021/07/11 00:22:30;;;;;;;12.07;9.43;;;18.20;88.10;;;;;;5093393;28;20114;-80
2021/07/11 00:24:56;;;;;;;16.85;9.45;;;18.20;88.00;;;;;;5092078;28;20107;-80
2021/07/11 00:27:22;;;;;;;13.43;10.07;;;18.20;88.00;;;;;;5092201;28;20044;-81
2021/07/11 00:29:47;;;;;;;12.85;9.85;;;18.20;88.00;;;;;;5093398;28;20043;-81
2021/07/11 00:32:13;;;;;;;14.88;9.88;;;18.20;88.10;;;;;;5076847;28;20047;-81
2021/07/11 00:34:39;;;;;;;14.77;9.35;;;18.20;88.10;;;;;;5071827;28;20161;-81
2021/07/11 00:37:04;;;;;;;11.98;9.13;;;18.10;88.00;;;;;;5073837;28;20029;-80
2021/07/11 00:39:30;;;;;;;10.60;9.50;;;18.10;88.10;;;;;;5071926;28;20029;-81
2021/07/11 00:41:56;;;;;;;12.90;10.63;;;18.10;88.10;;;;;;5073064;28;20021;-80
2021/07/11 00:44:21;;;;;;;11.95;9.93;;;18.10;88.00;;;;;;5073136;28;20037;-81
2021/07/11 00:46:47;;;;;;;13.82;9.57;;;18.10;88.00;;;;;;5072996;28;20024;-80
2021/07/11 00:49:15;;;;;;;11.85;8.98;;;18.10;87.90;;;;;;5074840;28;20388;-81
2021/07/11 00:51:40;;;;;;;13.27;10.13;;;18.10;88.10;;;;;;5093002;28;20509;-81
2021/07/11 00:54:06;;;;;;;15.57;10.70;;;18.10;88.10;;;;;;5097046;28;20036;-81
2021/07/11 00:56:32;;;;;;;16.25;12.20;;;18.10;88.10;;;;;;5096966;28;20070;-81
2021/07/11 00:58:58;;;;;;;13.38;10.85;;;18.00;88.00;;;;;;5095637;28;20052;-81
2021/07/11 01:01:38;;;;;;;13.85;11.07;;;18.00;88.00;;;;;;5096698;28;20020;-81
2021/07/11 01:04:12;;;;;;;13.43;8.90;;;18.00;88.20;;;;;;5096486;28;20020;-81
2021/07/11 01:06:42;;;;;;;14.60;9.65;;;18.00;88.40;;;;;;5090132;28;20016;-81
2021/07/11 01:09:11;;;;;;;12.43;10.05;;;17.90;88.30;;;;;;5076370;28;20021;-81
2021/07/11 01:12:02;;;;;;;12.20;10.25;;;18.00;88.50;;;;;;5076310;28;20013;-80
2021/07/11 01:14:31;;;;;;;11.40;8.93;;;18.00;88.60;;;;;;5086172;28;20020;-81
2021/07/11 01:16:58;;;;;;;13.80;10.63;;;18.00;88.50;;;;;;5082403;28;20024;-81
2021/07/11 01:19:35;;;;;;;11.98;10.68;;;17.90;88.00;;;;;;5094891;28;20086;-81
2021/07/11 01:22:06;;;;;;;16.08;13.25;;;17.90;88.70;;;;;;5096304;28;20028;-81
2021/07/11 01:24:33;;;;;;;14.00;11.02;;;17.90;88.70;;;;;;5097125;28;20434;-81
2021/07/11 01:27:02;;;;;;;12.13;10.45;;;17.90;88.60;;;;;;5089920;28;20036;-81
2021/07/11 01:29:29;;;;;;;14.27;10.55;;;17.90;88.70;;;;;;5074555;28;20035;-80
2021/07/11 01:31:56;;;;;;;12.88;11.43;;;17.90;88.60;;;;;;5081547;28;20032;-81
2021/07/11 01:34:23;;;;;;;13.32;11.88;;;17.90;89.20;;;;;;5094975;28;20074;-80
2021/07/11 01:36:50;;;;;;;13.32;11.23;;;17.90;88.70;;;;;;5096118;28;20048;-81
2021/07/11 01:39:16;;;;;;;14.18;10.77;;;17.90;88.70;;;;;;5096155;28;20020;-80
2021/07/11 01:41:45;;;;;;;13.65;10.75;;;17.90;88.80;;;;;;5095092;28;20069;-81
2021/07/11 01:44:11;;;;;;;17.30;13.30;;;18.00;88.90;;;;;;5094836;28;20051;-81
2021/07/11 01:46:40;;;;;;;16.63;12.35;;;17.90;88.70;;;;;;5094878;28;20028;-81
2021/07/11 01:49:06;;;;;;;13.50;11.57;;;18.00;88.90;;;;;;5094908;28;20020;-81
2021/07/11 01:51:32;;;;;;;15.20;12.02;;;17.90;88.90;;;;;;5094717;28;20434;-81
2021/07/11 01:53:58;;;;;;;18.98;12.98;;;17.90;88.90;;;;;;5095926;28;20052;-81
2021/07/11 01:56:24;;;;;;;12.57;10.55;;;17.90;89.50;;;;;;5095716;28;20035;-81
2021/07/11 01:58:50;;;;;;;14.93;11.43;;;17.90;88.90;;;;;;5095942;28;20099;-81
2021/07/11 02:01:18;;;;;;;14.75;10.52;;;17.90;88.90;;;;;;5094625;28;20489;-81
2021/07/11 02:03:43;;;;;;;15.23;11.73;;;17.90;89.10;;;;;;5094699;28;20038;-81
2021/07/11 02:06:11;;;;;;;13.20;10.57;;;17.90;89.10;;;;;;5094472;28;20524;-81
2021/07/11 02:08:38;;;;;;;11.82;9.75;;;17.90;89.00;;;;;;5095715;28;20025;-81
2021/07/11 02:11:05;;;;;;;16.27;11.68;;;17.90;88.90;;;;;;5090640;28;20020;-81
2021/07/11 02:13:43;;;;;;;13.85;9.90;;;17.90;89.00;;;;;;5075378;28;20044;-81
2021/07/11 02:16:32;;;;;;;13.77;11.37;;;17.90;89.20;;;;;;5075139;28;20039;-80
2021/07/11 02:18:59;;;;;;;12.73;10.27;;;17.90;89.10;;;;;;5073823;28;20051;-81
2021/07/11 02:21:27;;;;;;;13.75;11.35;;;17.80;89.10;;;;;;5074814;28;20036;-81
2021/07/11 02:23:53;;;;;;;16.52;11.93;;;17.90;89.10;;;;;;5075199;28;20029;-81
2021/07/11 02:26:20;;;;;;;12.35;11.05;;;17.80;88.90;;;;;;5094509;28;20531;-81
2021/07/11 02:28:49;;;;;;;15.10;12.77;;;17.80;89.10;;;;;;5095098;28;20024;-81
2021/07/11 02:31:15;;;;;;;17.15;12.25;;;17.80;89.20;;;;;;5093933;28;20076;-81
2021/07/11 02:33:42;;;;;;;14.15;12.10;;;17.80;89.30;;;;;;5095271;28;20031;-80
2021/07/11 02:36:22;;;;;;;14.10;11.90;;;17.80;89.60;;;;;;5080605;28;20024;-81
2021/07/11 02:39:08;;;;;;;16.48;11.80;;;17.80;89.60;;;;;;5074654;28;20028;-80
2021/07/11 02:41:37;;;;;;;17.23;11.75;;;17.80;89.60;;;;;;5074892;28;20027;-81
2021/07/11 02:44:05;;;;;;;;;;;17.70;89.40;;;;;;5075023;28;20020;-81
2021/07/11 02:46:43;;;;;;;12.23;10.77;;;17.70;89.20;;;;;;5074614;28;19912;-81
2021/07/11 02:49:12;;;;;;;15.05;12.77;;;17.70;89.70;;;;;;5074991;28;20393;-81
2021/07/11 02:51:42;;;;;;;20.90;13.88;;;17.70;89.60;;;;;;5074474;28;20145;-81
2021/07/11 02:54:09;;;;;;;14.25;12.68;;;17.70;89.70;;;;;;5074395;28;20055;-81
2021/07/11 02:56:40;;;;;;;18.50;14.98;;;17.70;90.20;;;;;;5074295;28;20492;-81
2021/07/11 02:59:08;;;;;;;17.27;13.65;;;17.70;89.90;;;;;;5073351;28;20166;-81
2021/07/11 03:01:35;;;;;;;17.90;14.20;;;17.70;90.00;;;;;;5074345;28;20024;-81
2021/07/11 03:04:03;;;;;;;21.13;13.85;;;17.60;90.00;;;;;;5073749;28;20036;-80
2021/07/11 03:06:35;;;;;;;16.55;14.00;;;17.60;90.00;;;;;;5072550;28;20028;-81
2021/07/11 03:09:05;;;;;;;18.42;13.73;;;17.60;90.10;;;;;;5073654;28;20025;-81
2021/07/11 03:11:35;;;;;;;18.85;14.40;;;17.60;90.10;;;;;;5075018;28;20060;-81
2021/07/11 03:14:03;;;;;;;18.73;13.30;;;17.60;90.00;;;;;;5067840;28;20020;-81
2021/07/11 03:16:30;;;;;;;20.48;14.90;;;17.60;90.30;;;;;;5071991;28;20057;-81
2021/07/11 03:18:56;;;;;;;15.15;11.73;;;17.50;90.10;;;;;;5053937;28;20037;-81
2021/07/11 03:21:23;;;;;;;14.85;11.88;;;17.50;90.10;;;;;;5069090;28;20539;-81
2021/07/11 03:23:51;;;;;;;14.13;11.82;;;17.50;90.10;;;;;;5054010;28;20366;-81
2021/07/11 03:26:18;;;;;;;16.67;11.93;;;17.50;90.10;;;;;;5053774;28;20086;-81
2021/07/11 03:28:46;;;;;;;17.17;12.32;;;17.60;90.10;;;;;;5069349;28;20481;-81
2021/07/11 03:31:12;;;;;;;23.52;15.32;;;17.60;90.10;;;;;;5053917;28;20028;-81
2021/07/11 03:33:40;;;;;;;17.15;13.05;;;17.50;90.10;;;;;;5069069;28;20382;-81
2021/07/11 03:36:08;;;;;;;20.92;13.65;;;17.50;90.10;;;;;;5053650;28;20112;-81
2021/07/11 03:38:48;;;;;;;18.48;14.93;;;17.50;90.10;;;;;;5069139;28;20040;-80
2021/07/11 03:41:18;;;;;;;17.77;13.13;;;17.50;90.10;;;;;;5072179;28;20503;-81
2021/07/11 03:43:50;;;;;;;24.20;15.73;;;17.60;90.20;;;;;;5093993;28;20044;-81
2021/07/11 03:46:17;;;;;;;21.77;16.83;;;17.60;90.20;;;;;;5092890;28;20035;-80
2021/07/11 03:48:50;;;;;;;19.73;14.93;;;17.60;90.20;;;;;;5075678;28;20036;-80
2021/07/11 03:51:20;;;;;;;16.60;12.75;;;17.60;90.20;;;;;;5093883;28;20032;-81
2021/07/11 03:53:48;;;;;;;18.60;15.18;;;17.60;90.20;;;;;;5052320;28;20547;-81
2021/07/11 03:56:14;;;;;;;21.67;16.52;;;17.60;90.20;;;;;;5053417;28;20028;-81
2021/07/11 03:58:42;;;;;;;35.95;18.67;;;17.60;90.20;;;;;;5053464;28;20032;-80
2021/07/11 04:01:08;;;;;;;22.35;15.80;;;17.60;90.20;;;;;;5053494;28;20466;-81
2021/07/11 04:03:38;;;;;;;27.95;17.23;;;17.60;90.30;;;;;;5053579;28;20055;-81
2021/07/11 04:06:05;;;;;;;26.85;18.38;;;17.60;90.30;;;;;;5053342;28;20043;-80
2021/07/11 04:08:33;;;;;;;31.70;21.25;;;17.60;90.30;;;;;;5053742;28;20052;-80
2021/07/11 04:10:59;;;;;;;30.70;21.20;;;17.70;90.30;;;;;;5052199;28;20132;-80
2021/07/11 04:13:26;;;;;;;33.17;22.70;;;17.70;90.30;;;;;;5052169;28;20060;-80
2021/07/11 04:15:56;;;;;;;46.38;26.40;;;17.70;90.30;;;;;;5062454;28;20028;-81
2021/07/11 04:18:24;;;;;;;31.25;21.25;;;17.70;90.30;;;;;;5073123;28;20520;-80
2021/07/11 04:20:53;;;;;;;37.50;23.65;;;17.70;90.30;;;;;;5072133;28;20032;-81
2021/07/11 04:23:23;;;;;;;39.80;26.83;;;17.70;90.40;;;;;;5073306;28;20021;-81
2021/07/11 04:25:53;;;;;;;47.60;28.77;;;17.70;90.40;;;;;;5073270;28;20028;-81
2021/07/11 04:28:19;;;;;;;48.65;29.33;;;17.70;90.40;;;;;;5091297;28;20024;-81
2021/07/11 04:30:46;;;;;;;49.70;30.48;;;17.80;90.40;;;;;;5097563;28;20032;-81
2021/07/11 04:33:14;;;;;;;67.95;36.58;;;17.80;90.50;;;;;;5094676;28;20405;-80
2021/07/11 04:35:40;;;;;;;62.63;35.03;;;17.80;90.80;;;;;;5076090;28;20025;-81
2021/07/11 04:38:06;;;;;;;63.40;35.05;;;17.80;90.80;;;;;;5077134;28;20020;-81
2021/07/11 04:40:32;;;;;;;59.70;35.72;;;17.80;90.50;;;;;;5075774;28;20020;-80
2021/07/11 04:42:57;;;;;;;57.55;32.03;;;17.80;90.50;;;;;;5075641;28;20074;-80
2021/07/11 04:45:23;;;;;;;55.00;32.53;;;17.90;90.50;;;;;;5076962;28;20024;-81
2021/07/11 04:47:48;;;;;;;62.00;35.33;;;17.90;90.50;;;;;;5076616;28;20035;-81
2021/07/11 04:50:14;;;;;;;62.20;35.90;;;17.90;90.60;;;;;;5076588;28;20063;-81
2021/07/11 04:52:41;;;;;;;66.53;37.42;;;17.90;90.60;;;;;;5075665;28;20120;-81
2021/07/11 04:55:12;;;;;;;68.63;35.78;;;18.00;90.60;;;;;;5076759;28;20507;-81
2021/07/11 04:57:38;;;;;;;74.47;37.83;;;18.00;90.60;;;;;;5076861;28;20024;-81
2021/07/11 05:00:06;;;;;;;76.57;41.42;;;18.00;90.60;;;;;;5075125;28;20082;-81
2021/07/11 05:02:33;;;;;;;79.03;43.47;;;18.00;90.60;;;;;;5075154;28;20085;-81
2021/07/11 05:05:02;;;;;;;67.20;37.10;;;18.10;90.50;;;;;;5076674;28;20031;-81
2021/07/11 05:07:28;;;;;;;84.93;41.85;;;18.10;90.50;;;;;;5075346;28;20028;-81
2021/07/11 05:09:53;;;;;;;76.85;44.28;;;18.10;90.50;;;;;;5055111;28;20512;-81
2021/07/11 05:12:19;;;;;;;79.50;43.55;;;18.10;90.40;;;;;;5054951;28;20032;-81
2021/07/11 05:14:45;;;;;;;83.70;41.10;;;18.10;90.40;;;;;;5054935;28;20048;-81
2021/07/11 05:17:10;;;;;;;84.78;42.58;;;18.10;90.50;;;;;;5056722;28;20021;-81
2021/07/11 05:19:37;;;;;;;67.80;38.63;;;18.20;90.50;;;;;;5064632;28;20040;-81
2021/07/11 05:22:03;;;;;;;74.80;39.90;;;18.20;90.50;;;;;;5097032;28;20040;-81
2021/07/11 05:24:29;;;;;;;80.82;44.00;;;18.20;90.50;;;;;;5096415;28;20039;-80
2021/07/11 05:26:54;;;;;;;70.15;41.25;;;18.20;90.50;;;;;;5096605;28;20024;-81
2021/07/11 05:29:20;;;;;;;76.05;42.80;;;18.20;90.50;;;;;;5094505;28;20043;-81
2021/07/11 05:31:46;;;;;;;84.00;45.03;;;18.20;90.50;;;;;;5075914;28;20074;-81
2021/07/11 05:34:11;;;;;;;72.13;42.33;;;18.30;90.50;;;;;;5074811;28;20036;-81
2021/07/11 05:36:37;;;;;;;82.13;44.42;;;18.20;90.60;;;;;;5076174;28;20469;-81
2021/07/11 05:39:04;;;;;;;82.30;43.85;;;18.20;90.60;;;;;;5074551;28;20064;-81
2021/07/11 05:41:30;;;;;;;77.85;43.25;;;18.20;90.70;;;;;;5074554;28;20021;-80
2021/07/11 05:43:55;;;;;;;81.25;44.53;;;18.30;90.70;;;;;;5075806;28;20028;-81
2021/07/11 05:46:21;;;;;;;82.45;45.50;;;18.30;90.70;;;;;;5075768;28;20029;-80
2021/07/11 05:48:46;;;;;;;86.22;46.25;;;18.20;90.70;;;;;;5075877;28;20469;-81
2021/07/11 05:51:12;;;;;;;107.63;51.03;;;18.30;90.60;;;;;;5075501;28;20041;-81
2021/07/11 05:53:38;;;;;;;83.05;47.15;;;18.20;90.60;;;;;;5074036;28;20111;-80
2021/07/11 05:56:03;;;;;;;79.40;46.83;;;18.20;90.70;;;;;;5081737;28;20073;-80
2021/07/11 05:58:29;;;;;;;84.78;46.50;;;18.30;90.70;;;;;;5094824;28;20461;-80
2021/07/11 06:00:55;;;;;;;87.75;46.30;;;18.30;90.70;;;;;;5074374;28;20033;-80
2021/07/11 06:03:20;;;;;;;80.72;45.42;;;18.30;90.70;;;;;;5079946;28;20028;-80
2021/07/11 06:05:46;;;;;;;87.38;46.97;;;18.30;90.70;;;;;;5078162;28;20107;-81
2021/07/11 06:08:12;;;;;;;81.32;48.30;;;18.30;90.80;;;;;;5090683;28;20020;-81
2021/07/11 06:10:38;;;;;;;89.15;48.70;;;18.40;90.80;;;;;;5072046;28;20229;-81
2021/07/11 06:13:04;;;;;;;81.45;45.42;;;18.40;90.80;;;;;;5095273;28;20047;-81
2021/07/11 06:15:30;;;;;;;82.82;46.70;;;18.50;90.80;;;;;;5095182;28;20032;-80
2021/07/11 06:17:55;;;;;;;78.53;45.08;;;18.50;90.70;;;;;;5085751;28;20043;-81
2021/07/11 06:20:22;;;;;;;80.55;47.15;;;18.60;90.60;;;;;;5074740;28;20124;-81
2021/07/11 06:22:49;;;;;;;77.45;45.67;;;18.70;90.50;;;;;;5077846;28;20016;-81
2021/07/11 06:25:14;;;;;;;83.10;45.90;;;18.70;90.70;;;;;;5091432;28;20079;-80
2021/07/11 06:27:42;;;;;;;85.82;49.13;;;18.80;90.30;;;;;;5093949;28;20469;-80
2021/07/11 06:30:10;;;;;;;79.05;46.08;;;18.80;90.20;;;;;;5075128;28;20485;-81
2021/07/11 06:32:41;;;;;;;75.95;45.15;;;18.90;90.20;;;;;;5074436;28;20025;-81
2021/07/11 06:35:08;;;;;;;102.75;54.53;;;18.90;90.20;;;;;;5074495;28;20039;-81
2021/07/11 06:37:35;;;;;;;94.00;51.58;;;18.90;90.20;;;;;;5075127;28;20021;-81
2021/07/11 06:40:01;;;;;;;99.68;52.35;;;18.90;90.20;;;;;;5074905;28;20023;-81
2021/07/11 06:42:26;;;;;;;84.93;48.28;;;18.80;90.10;;;;;;5073263;28;20103;-81
2021/07/11 06:44:52;;;;;;;95.13;51.28;;;18.80;90.20;;;;;;5074396;28;20099;-80
2021/07/11 06:47:18;;;;;;;92.80;50.70;;;18.70;90.20;;;;;;5073359;28;20090;-80
2021/07/11 06:49:43;;;;;;;86.63;47.58;;;18.70;90.30;;;;;;5073062;28;20029;-81
2021/07/11 06:52:09;;;;;;;95.82;50.63;;;18.60;90.40;;;;;;5080427;28;20165;-80
2021/07/11 06:54:35;;;;;;;90.53;49.60;;;18.60;90.40;;;;;;5092647;28;20084;-80
2021/07/11 06:57:00;;;;;;;98.03;51.00;;;18.60;90.40;;;;;;5092776;28;20024;-80
2021/07/11 06:59:26;;;;;;;98.07;50.15;;;18.60;90.40;;;;;;5088090;28;20037;-80
2021/07/11 07:01:51;;;;;;;100.18;51.08;;;18.60;90.40;;;;;;5093210;28;20396;-80
2021/07/11 07:04:17;;;;;;;89.22;49.80;;;18.70;90.40;;;;;;5093045;28;20032;-81
2021/07/11 07:06:43;;;;;;;81.85;46.55;;;18.70;90.30;;;;;;5093079;28;20024;-80
2021/07/11 07:09:08;;;;;;;89.35;48.08;;;18.70;90.30;;;;;;5092916;28;20026;-81
2021/07/11 07:11:34;;;;;;;86.75;48.45;;;18.70;90.30;;;;;;5094211;28;20025;-81
2021/07/11 07:14:00;;;;;;;88.72;48.92;;;18.70;90.30;;;;;;5093779;28;20477;-81
2021/07/11 07:16:26;;;;;;;70.47;46.13;;;18.70;90.20;;;;;;5070954;28;20492;-81
2021/07/11 07:18:51;;;;;;;66.47;43.78;;;18.70;90.10;;;;;;5092744;28;20087;-81
2021/07/11 07:21:17;;;;;;;64.95;42.72;;;18.70;90.00;;;;;;5091130;28;20020;-81
2021/07/11 07:23:44;;;;;;;60.45;41.38;;;18.80;90.00;;;;;;5088885;28;20031;-81
2021/07/11 07:26:10;;;;;;;57.20;42.05;;;18.90;89.90;;;;;;5077320;28;20388;-81
2021/07/11 07:28:37;;;;;;;57.28;39.88;;;19.00;89.90;;;;;;5093959;28;20039;-81
2021/07/11 07:31:03;;;;;;;48.30;38.15;;;19.10;89.80;;;;;;5076964;28;20032;-81
2021/07/11 07:33:29;;;;;;;47.67;36.60;;;19.20;89.10;;;;;;5073428;28;20055;-81
2021/07/11 07:35:55;;;;;;;43.30;35.63;;;19.20;88.00;;;;;;5073326;28;20036;-81
2021/07/11 07:38:21;;;;;;;47.65;35.15;;;19.20;88.10;;;;;;5066568;28;20035;-80
2021/07/11 07:40:46;;;;;;;49.30;36.30;;;19.20;88.10;;;;;;5086069;28;20025;-81
2021/07/11 07:43:13;;;;;;;40.33;32.15;;;19.20;88.30;;;;;;5055511;28;20029;-81
2021/07/11 07:45:44;;;;;;;38.03;29.60;;;19.30;88.30;;;;;;5078571;28;20070;-81
2021/07/11 07:48:11;;;;;;;35.15;29.02;;;19.40;88.10;;;;;;5092627;28;20024;-81
2021/07/11 07:50:38;;;;;;;36.70;28.75;;;19.50;87.70;;;;;;5093453;28;20036;-81
2021/07/11 07:53:04;;;;;;;31.90;26.60;;;19.60;87.80;;;;;;5092179;28;20035;-81
2021/07/11 07:55:31;;;;;;;28.63;24.15;;;19.90;87.40;;;;;;5093504;28;20027;-81
2021/07/11 07:57:58;;;;;;;29.52;23.33;;;20.10;86.30;;;;;;5074208;28;20052;-81
2021/07/11 08:00:24;;;;;;;26.13;20.95;;;20.40;85.70;;;;;;5073148;28;20032;-81
2021/07/11 08:02:51;;;;;;;23.13;19.08;;;20.60;84.70;;;;;;5090572;28;20094;-81
2021/07/11 08:05:16;;;;;;;20.23;17.10;;;20.80;83.30;;;;;;5093262;28;20031;-82
2021/07/11 08:07:42;;;;;;;18.13;15.50;;;20.90;81.60;;;;;;5078406;28;20042;-81
2021/07/11 08:10:09;;;;;;;17.27;15.30;;;21.00;80.60;;;;;;5078149;28;20515;-81
2021/07/11 08:12:34;;;;;;;15.48;13.80;;;21.20;80.10;;;;;;5073337;28;20027;-82
2021/07/11 08:15:00;;;;;;;18.35;13.77;;;21.30;79.40;;;;;;5072103;28;20115;-82
2021/07/11 08:17:26;;;;;;;16.15;13.38;;;21.40;78.80;;;;;;5073646;28;20056;-82
2021/07/11 08:19:51;;;;;;;13.73;12.07;;;21.60;78.50;;;;;;5091963;28;20040;-83
2021/07/11 08:22:17;;;;;;;15.48;11.88;;;21.70;77.80;;;;;;5093547;28;20055;-83
2021/07/11 08:24:42;;;;;;;14.25;11.02;;;21.90;77.30;;;;;;5093641;28;20032;-83
2021/07/11 08:27:08;;;;;;;14.55;11.15;;;22.00;76.70;;;;;;5081807;28;20123;-82
2021/07/11 08:29:34;;;;;;;12.88;11.57;;;22.00;75.50;;;;;;5072045;28;20028;-81
2021/07/11 08:31:59;;;;;;;16.60;11.65;;;22.00;75.30;;;;;;5073240;28;20498;-82
2021/07/11 08:34:25;;;;;;;12.85;10.15;;;21.90;75.90;;;;;;5072905;28;20028;-83
2021/07/11 08:36:52;;;;;;;13.55;10.07;;;21.90;75.20;;;;;;5072888;28;20060;-82
2021/07/11 08:39:19;;;;;;;12.52;11.00;;;22.00;74.70;;;;;;5072818;28;20020;-81
2021/07/11 08:41:46;;;;;;;10.93;9.68;;;22.10;74.90;;;;;;5073041;28;20389;-82
2021/07/11 08:44:11;;;;;;;11.00;9.90;;;22.30;74.70;;;;;;5071810;28;20025;-82
2021/07/11 08:46:38;;;;;;;11.10;9.32;;;22.30;73.80;;;;;;5083567;28;20031;-81
2021/07/11 08:49:06;;;;;;;11.15;9.95;;;22.40;73.20;;;;;;5083258;28;20123;-82
2021/07/11 08:51:32;;;;;;;12.10;8.55;;;22.60;72.40;;;;;;5072605;28;20440;-82
2021/07/11 08:53:59;;;;;;;12.18;9.45;;;22.70;72.30;;;;;;5072880;28;20078;-82
2021/07/11 08:56:28;;;;;;;10.77;9.10;;;22.80;71.60;;;;;;5072807;28;20490;-81
2021/07/11 08:58:55;;;;;;;10.25;8.75;;;22.90;71.20;;;;;;5072826;28;20025;-82
2021/07/11 09:01:26;;;;;;;11.00;9.10;;;23.10;70.50;;;;;;5087082;28;20028;-81
2021/07/11 09:04:00;;;;;;;10.57;8.80;;;23.20;69.60;;;;;;5093119;28;20028;-82
2021/07/11 09:06:26;;;;;;;10.63;8.43;;;23.30;70.00;;;;;;5092981;28;20020;-82
2021/07/11 09:09:01;;;;;;;12.63;8.52;;;23.40;69.80;;;;;;5089925;28;20035;-82
2021/07/11 09:11:26;;;;;;;11.57;8.93;;;23.60;67.60;;;;;;5072915;28;20033;-82
2021/07/11 09:13:52;;;;;;;10.80;7.75;;;23.60;68.70;;;;;;5074015;28;20497;-81
2021/07/11 09:16:18;;;;;;;9.38;6.88;;;23.70;68.60;;;;;;5076283;28;20477;-82
2021/07/11 09:18:43;;;;;;;9.88;7.60;;;23.80;67.80;;;;;;5058655;28;20274;-82
2021/07/11 09:21:13;;;;;;;8.80;7.95;;;23.90;67.80;;;;;;5075789;28;20048;-78
2021/07/11 09:23:40;;;;;;;11.75;8.88;;;23.90;66.30;;;;;;5076074;28;20428;-78
2021/07/11 09:26:07;;;;;;;9.10;6.70;;;23.90;67.30;;;;;;5074391;28;20032;-78
2021/07/11 09:28:35;;;;;;;7.55;6.75;;;23.90;66.20;;;;;;5075491;28;20111;-78
2021/07/11 09:31:07;;;;;;;7.88;6.10;;;24.00;66.00;;;;;;5076022;28;20028;-78
2021/07/11 09:33:35;;;;;;;6.80;5.65;;;24.10;65.30;;;;;;5083226;28;20051;-78
2021/07/11 09:36:09;;;;;;;8.13;5.70;;;24.30;65.70;;;;;;5093970;28;20050;-78
2021/07/11 09:38:35;;;;;;;6.50;4.93;;;24.40;64.00;;;;;;5093608;28;20492;-78
2021/07/11 09:41:13;;;;;;;7.28;5.13;;;24.50;63.30;;;;;;5083003;28;20024;-78
2021/07/11 09:43:40;;;;;;;6.05;5.20;;;24.60;64.30;;;;;;5076193;28;20035;-78
2021/07/11 09:46:16;;;;;;;7.30;5.40;;;24.60;63.90;;;;;;5082581;28;20032;-79
2021/07/11 09:48:42;;;;;;;7.40;5.47;;;24.70;62.90;;;;;;5095028;28;20042;-78
2021/07/11 09:51:15;;;;;;;6.40;4.75;;;24.80;63.10;;;;;;5095685;28;20032;-78
2021/07/11 09:53:41;;;;;;;7.55;4.78;;;24.50;62.40;;;;;;5094551;28;20393;-79
2021/07/11 09:56:06;;;;;;;5.00;4.53;;;24.30;64.10;;;;;;5087436;28;20028;-78
2021/07/11 09:58:33;;;;;;;6.00;4.75;;;24.30;65.10;;;;;;5074218;28;20024;-78
2021/07/11 10:00:58;;;;;;;5.60;5.00;;;24.50;65.00;;;;;;5083137;28;20024;-78
2021/07/11 10:03:24;;;;;;;5.43;4.72;;;24.50;64.00;;;;;;5083028;28;20082;-79
2021/07/11 10:05:50;;;;;;;6.10;3.75;;;24.30;63.40;;;;;;5095687;28;20473;-79
2021/07/11 10:08:15;;;;;;;4.82;3.67;;;24.10;65.10;;;;;;5078664;28;20035;-79
2021/07/11 10:10:42;;;;;;;4.03;3.63;;;24.20;64.00;;;;;;5073754;28;20029;-79
2021/07/11 10:13:08;;;;;;;6.03;4.22;;;24.40;62.70;;;;;;5078371;28;20071;-76
2021/07/11 10:15:36;;;;;;;4.85;3.58;;;24.60;59.60;;;;;;5082276;28;20039;-79
2021/07/11 10:18:14;;;;;;;6.63;3.42;;;24.70;61.50;;;;;;5092976;28;20024;-79
2021/07/11 10:20:49;;;;;;;4.32;3.92;;;24.90;61.90;;;;;;5087509;28;20029;-79
2021/07/11 10:23:33;;;;;;;4.45;3.60;;;25.20;61.50;;;;;;5074873;28;20055;-79
2021/07/11 10:26:13;;;;;;;3.72;3.42;;;25.40;59.10;;;;;;5074452;28;20395;-78
2021/07/11 10:28:45;;;;;;;3.88;3.38;;;25.50;59.60;;;;;;5074715;28;20052;-79
2021/07/11 10:31:22;;;;;;;3.92;2.78;;;25.40;59.90;;;;;;5074923;28;20052;-80
2021/07/11 10:33:52;;;;;;;3.40;2.97;;;25.40;59.50;;;;;;5074451;28;20028;-76
2021/07/11 10:36:32;;;;;;;4.90;2.88;;;25.50;59.30;;;;;;5079402;28;20031;-78
2021/07/11 10:38:59;;;;;;;3.00;2.75;;;25.30;59.20;;;;;;5053388;28;20074;-78
2021/07/11 10:41:27;;;;;;;3.88;2.28;;;25.00;59.30;;;;;;5054510;28;20473;-78
2021/07/11 10:44:08;;;;;;;4.10;2.20;;;24.90;59.90;;;;;;5054789;28;20047;-78
2021/07/11 10:46:34;;;;;;;2.58;2.38;;;25.10;60.00;;;;;;5054640;28;20040;-78
2021/07/11 10:49:21;;;;;;;5.88;2.40;;;25.40;59.40;;;;;;5091017;28;20036;-78
2021/07/11 10:51:47;;;;;;;2.67;1.83;;;25.50;58.30;;;;;;5094636;28;20370;-78
2021/07/11 10:54:49;;;;;;;2.33;2.00;;;25.40;57.70;;;;;;5093470;28;20358;-78
2021/07/11 10:57:25;;;;;;;2.85;1.80;;;25.20;58.70;;;;;;5094619;28;20560;-78
2021/07/11 10:59:50;;;;;;;2.22;1.80;;;25.30;59.50;;;;;;5088767;28;20420;-78
2021/07/11 11:02:16;;;;;;;3.30;2.22;;;25.40;58.20;;;;;;5072874;28;20029;-78
2021/07/11 11:04:43;;;;;;;1.88;1.50;;;25.60;57.00;;;;;;5074091;28;20081;-78
2021/07/11 11:07:17;;;;;;;4.65;2.10;;;25.80;58.00;;;;;;5074116;28;20033;-78
2021/07/11 11:09:47;;;;;;;2.13;1.90;;;26.00;59.50;;;;;;5074400;28;20107;-78
2021/07/11 11:12:21;;;;;;;2.03;1.80;;;26.20;57.00;;;;;;5074262;28;20100;-78
2021/07/11 11:15:16;;;;;;;2.95;1.90;;;26.40;57.00;;;;;;5073945;28;20148;-78
2021/07/11 11:17:42;;;;;;;2.67;2.13;;;26.40;55.90;;;;;;5052635;28;20040;-78
2021/07/11 11:20:13;;;;;;;2.95;1.55;;;26.30;55.80;;;;;;5052421;28;20049;-78
2021/07/11 11:22:49;;;;;;;4.18;2.10;;;26.30;57.30;;;;;;5061660;28;20043;-78
2021/07/11 11:25:19;;;;;;;2.30;2.08;;;26.40;56.60;;;;;;5094032;28;20028;-78
2021/07/11 11:27:45;;;;;;;4.25;2.35;;;26.60;55.60;;;;;;5092833;28;20086;-78
2021/07/11 11:30:18;;;;;;;5.45;2.03;;;26.60;54.70;;;;;;5092883;28;20415;-78
2021/07/11 11:32:58;;;;;;;3.45;2.10;;;26.60;55.10;;;;;;5094030;28;20103;-78
2021/07/11 11:35:34;;;;;;;2.88;2.20;;;26.70;55.40;;;;;;5092340;28;20476;-78
2021/07/11 11:38:05;;;;;;;2.80;2.38;;;26.60;54.80;;;;;;5093993;28;20060;-78
2021/07/11 11:40:34;;;;;;;3.67;2.30;;;26.20;56.00;;;;;;5073618;28;20088;-78
2021/07/11 11:43:01;;;;;;;;;;;25.90;57.30;;;;;;5074152;28;20025;-78
2021/07/11 11:45:31;;;;;;;2.70;1.63;;;25.60;58.10;;;;;;5073921;28;19951;-78
2021/07/11 11:48:01;;;;;;;2.10;1.90;;;25.30;59.00;;;;;;5073403;28;20063;-78
2021/07/11 11:50:28;;;;;;;3.25;2.00;;;25.20;57.00;;;;;;5073496;28;20037;-78
2021/07/11 11:53:15;;;;;;;3.20;2.30;;;25.30;58.50;;;;;;5073463;28;20032;-78
2021/07/11 11:55:52;;;;;;;3.90;1.92;;;25.50;58.30;;;;;;5052059;28;20115;-78
2021/07/11 11:58:29;;;;;;;5.57;1.70;;;25.50;58.00;;;;;;5053467;28;20378;-78
2021/07/11 12:01:07;;;;;;;2.38;1.80;;;25.60;58.00;;;;;;5052336;28;20053;-78
2021/07/11 12:03:36;;;;;;;2.10;1.70;;;25.60;57.20;;;;;;5061716;28;20039;-78
2021/07/11 12:06:04;;;;;;;1.80;1.70;;;25.70;56.90;;;;;;5093299;28;20532;-78
2021/07/11 12:08:35;;;;;;;2.17;1.70;;;25.90;56.20;;;;;;5093479;28;20501;-78
2021/07/11 12:11:00;;;;;;;1.83;1.70;;;26.20;56.00;;;;;;5079475;28;20035;-78
2021/07/11 12:13:28;;;;;;;1.73;1.60;;;26.30;54.70;;;;;;5055418;28;20396;-78
2021/07/11 12:16:16;;;;;;;2.10;1.80;;;26.20;53.70;;;;;;5072181;28;20480;-78
2021/07/11 12:18:42;;;;;;;1.38;1.27;;;26.10;53.90;;;;;;5073141;28;20040;-78
2021/07/11 12:21:08;;;;;;;2.13;1.50;;;25.90;54.20;;;;;;5073087;28;20090;-78
2021/07/11 12:23:34;;;;;;;1.52;1.27;;;25.80;53.50;;;;;;5072836;28;20028;-78
2021/07/11 12:26:02;;;;;;;1.52;1.40;;;25.80;53.90;;;;;;5075280;28;20469;-78
2021/07/11 12:28:27;;;;;;;2.15;1.38;;;25.80;54.50;;;;;;5092739;28;20020;-78
2021/07/11 12:30:56;;;;;;;1.83;1.60;;;25.80;55.10;;;;;;5091771;28;20032;-78
2021/07/11 12:33:29;;;;;;;2.17;1.40;;;25.70;55.30;;;;;;5092003;28;20373;-78
2021/07/11 12:35:59;;;;;;;1.75;1.65;;;25.60;54.30;;;;;;5091952;28;20430;-78
2021/07/11 12:38:33;;;;;;;3.72;1.45;;;25.50;54.50;;;;;;5093287;28;20376;-78